sensor_id;sensor_type;location;lat;lon;timestamp;pressure;altitude;pressure_sealevel;temperature;humidity
59409;BME280;45213;32.654;-115.458;2022-08-21T00:00:05;100575.75;;;38.64;33.57
59409;BME280;45213;32.654;-115.458;2022-08-21T00:02:46;100563.13;;;38.71;33.75
59409;BME280;45213;32.654;-115.458;2022-08-21T00:05:13;100574.91;;;38.39;34.43
59409;BME280;45213;32.654;-115.458;2022-08-21T00:07:39;100583.22;;;38.54;34.27
59409;BME280;45213;32.654;-115.458;2022-08-21T00:10:06;100580.66;;;38.60;33.93
59409;BME280;45213;32.654;-115.458;2022-08-21T00:12:33;100589.72;;;38.53;34.27
59409;BME280;45213;32.654;-115.458;2022-08-21T00:15:00;100586.41;;;38.74;33.88
59409;BME280;45213;32.654;-115.458;2022-08-21T00:17:26;100574.97;;;38.87;33.59
59409;BME280;45213;32.654;-115.458;2022-08-21T00:19:53;100585.22;;;38.93;33.42
59409;BME280;45213;32.654;-115.458;2022-08-21T00:22:20;100599.19;;;38.40;34.22
59409;BME280;45213;32.654;-115.458;2022-08-21T00:24:46;100591.09;;;38.16;34.80
59409;BME280;45213;32.654;-115.458;2022-08-21T00:27:13;100593.97;;;38.06;35.64
59409;BME280;45213;32.654;-115.458;2022-08-21T00:29:50;100596.69;;;38.31;34.85
59409;BME280;45213;32.654;-115.458;2022-08-21T00:32:21;100597.22;;;38.10;35.53
59409;BME280;45213;32.654;-115.458;2022-08-21T00:34:49;100594.59;;;37.83;36.33
59409;BME280;45213;32.654;-115.458;2022-08-21T00:37:21;100607.53;;;37.81;36.75
59409;BME280;45213;32.654;-115.458;2022-08-21T00:39:48;100608.91;;;37.94;35.99
59409;BME280;45213;32.654;-115.458;2022-08-21T00:42:16;100602.09;;;37.73;36.47
59409;BME280;45213;32.654;-115.458;2022-08-21T00:44:45;100593.69;;;37.50;36.70
59409;BME280;45213;32.654;-115.458;2022-08-21T00:47:16;100602.53;;;37.52;36.52
59409;BME280;45213;32.654;-115.458;2022-08-21T00:49:55;100596.41;;;37.50;36.99
59409;BME280;45213;32.654;-115.458;2022-08-21T00:52:47;100613.53;;;37.42;36.64
59409;BME280;45213;32.654;-115.458;2022-08-21T00:55:14;100612.88;;;37.49;37.20
59409;BME280;45213;32.654;-115.458;2022-08-21T00:57:45;100609.22;;;37.24;37.44
59409;BME280;45213;32.654;-115.458;2022-08-21T01:00:19;100605.88;;;37.30;38.06
59409;BME280;45213;32.654;-115.458;2022-08-21T01:02:47;100602.41;;;37.19;38.73
59409;BME280;45213;32.654;-115.458;2022-08-21T01:05:14;100592.50;;;37.02;38.66
59409;BME280;45213;32.654;-115.458;2022-08-21T01:07:42;100605.44;;;37.08;38.35
59409;BME280;45213;32.654;-115.458;2022-08-21T01:10:12;100619.19;;;36.81;38.68
59409;BME280;45213;32.654;-115.458;2022-08-21T01:12:43;100611.19;;;36.53;39.83
59409;BME280;45213;32.654;-115.458;2022-08-21T01:15:10;100606.38;;;36.47;40.23
59409;BME280;45213;32.654;-115.458;2022-08-21T01:17:41;100618.41;;;36.44;40.13
59409;BME280;45213;32.654;-115.458;2022-08-21T01:20:11;100605.22;;;36.49;40.05
59409;BME280;45213;32.654;-115.458;2022-08-21T01:22:44;100599.44;;;36.44;40.07
59409;BME280;45213;32.654;-115.458;2022-08-21T01:25:19;100605.59;;;36.28;40.20
59409;BME280;45213;32.654;-115.458;2022-08-21T01:27:47;100598.47;;;36.09;41.01
59409;BME280;45213;32.654;-115.458;2022-08-21T01:30:21;100600.94;;;36.03;41.26
59409;BME280;45213;32.654;-115.458;2022-08-21T01:32:48;100587.78;;;35.90;41.22
59409;BME280;45213;32.654;-115.458;2022-08-21T01:35:17;100602.19;;;35.90;41.58
59409;BME280;45213;32.654;-115.458;2022-08-21T01:37:45;100609.56;;;35.98;41.57
59409;BME280;45213;32.654;-115.458;2022-08-21T01:40:13;100602.03;;;35.74;41.97
59409;BME280;45213;32.654;-115.458;2022-08-21T01:42:45;100590.00;;;35.59;42.32
59409;BME280;45213;32.654;-115.458;2022-08-21T01:45:13;100610.28;;;35.54;42.53
59409;BME280;45213;32.654;-115.458;2022-08-21T01:47:43;100618.56;;;35.53;42.60
59409;BME280;45213;32.654;-115.458;2022-08-21T01:50:13;100618.19;;;35.38;43.21
59409;BME280;45213;32.654;-115.458;2022-08-21T01:52:40;100616.72;;;35.26;43.12
59409;BME280;45213;32.654;-115.458;2022-08-21T01:55:09;100620.44;;;35.25;43.01
59409;BME280;45213;32.654;-115.458;2022-08-21T01:57:39;100630.38;;;35.24;43.23
59409;BME280;45213;32.654;-115.458;2022-08-21T02:00:09;100634.91;;;35.33;43.21
59409;BME280;45213;32.654;-115.458;2022-08-21T02:02:40;100625.84;;;35.25;42.72
59409;BME280;45213;32.654;-115.458;2022-08-21T02:05:09;100633.53;;;35.20;42.53
59409;BME280;45213;32.654;-115.458;2022-08-21T02:07:56;100637.53;;;35.16;42.87
59409;BME280;45213;32.654;-115.458;2022-08-21T02:10:26;100641.81;;;35.08;43.05
59409;BME280;45213;32.654;-115.458;2022-08-21T02:12:54;100649.25;;;35.06;43.06
59409;BME280;45213;32.654;-115.458;2022-08-21T02:15:21;100651.16;;;34.96;43.78
59409;BME280;45213;32.654;-115.458;2022-08-21T02:17:54;100652.44;;;34.92;43.77
59409;BME280;45213;32.654;-115.458;2022-08-21T02:20:32;100651.00;;;34.88;43.76
59409;BME280;45213;32.654;-115.458;2022-08-21T02:23:01;100669.25;;;34.86;43.95
59409;BME280;45213;32.654;-115.458;2022-08-21T02:25:28;100677.22;;;34.87;43.80
59409;BME280;45213;32.654;-115.458;2022-08-21T02:27:57;100680.06;;;34.86;43.38
59409;BME280;45213;32.654;-115.458;2022-08-21T02:30:28;100682.06;;;34.84;43.90
59409;BME280;45213;32.654;-115.458;2022-08-21T02:32:55;100693.19;;;34.81;43.80
59409;BME280;45213;32.654;-115.458;2022-08-21T02:35:22;100699.03;;;34.76;44.59
59409;BME280;45213;32.654;-115.458;2022-08-21T02:37:53;100701.75;;;34.66;44.29
59409;BME280;45213;32.654;-115.458;2022-08-21T02:40:22;100708.88;;;34.67;44.50
59409;BME280;45213;32.654;-115.458;2022-08-21T02:42:50;100709.69;;;34.58;44.90
59409;BME280;45213;32.654;-115.458;2022-08-21T02:45:18;100715.09;;;34.58;44.92
59409;BME280;45213;32.654;-115.458;2022-08-21T02:47:50;100708.97;;;34.56;45.34
59409;BME280;45213;32.654;-115.458;2022-08-21T02:53:15;100722.38;;;34.28;46.82
59409;BME280;45213;32.654;-115.458;2022-08-21T02:55:44;100724.94;;;34.30;46.62
59409;BME280;45213;32.654;-115.458;2022-08-21T02:58:20;100729.03;;;34.24;47.29
59409;BME280;45213;32.654;-115.458;2022-08-21T03:00:50;100739.31;;;34.21;46.93
59409;BME280;45213;32.654;-115.458;2022-08-21T03:03:18;100740.38;;;34.08;47.46
59409;BME280;45213;32.654;-115.458;2022-08-21T03:05:50;100740.06;;;34.02;48.24
59409;BME280;45213;32.654;-115.458;2022-08-21T03:08:19;100740.78;;;34.04;48.19
59409;BME280;45213;32.654;-115.458;2022-08-21T03:10:50;100740.38;;;33.99;47.83
59409;BME280;45213;32.654;-115.458;2022-08-21T03:13:19;100736.22;;;33.85;48.19
59409;BME280;45213;32.654;-115.458;2022-08-21T03:15:50;100733.50;;;33.75;48.62
59409;BME280;45213;32.654;-115.458;2022-08-21T03:18:17;100751.28;;;33.87;48.08
59409;BME280;45213;32.654;-115.458;2022-08-21T03:20:44;100747.88;;;33.85;47.96
59409;BME280;45213;32.654;-115.458;2022-08-21T03:23:13;100766.22;;;33.82;48.54
59409;BME280;45213;32.654;-115.458;2022-08-21T03:25:41;100772.28;;;33.74;48.49
59409;BME280;45213;32.654;-115.458;2022-08-21T03:28:14;100758.44;;;33.58;49.22
59409;BME280;45213;32.654;-115.458;2022-08-21T03:30:43;100789.72;;;33.60;49.30
59409;BME280;45213;32.654;-115.458;2022-08-21T03:33:10;100786.28;;;33.58;48.96
59409;BME280;45213;32.654;-115.458;2022-08-21T03:35:40;100790.38;;;33.53;49.31
59409;BME280;45213;32.654;-115.458;2022-08-21T03:38:12;100788.50;;;33.53;49.55
59409;BME280;45213;32.654;-115.458;2022-08-21T03:40:48;100785.69;;;33.55;49.26
59409;BME280;45213;32.654;-115.458;2022-08-21T03:43:15;100788.31;;;33.45;48.88
59409;BME280;45213;32.654;-115.458;2022-08-21T03:45:42;100788.47;;;33.43;49.50
59409;BME280;45213;32.654;-115.458;2022-08-21T03:48:10;100797.41;;;33.44;48.98
59409;BME280;45213;32.654;-115.458;2022-08-21T03:50:39;100798.34;;;33.33;49.65
59409;BME280;45213;32.654;-115.458;2022-08-21T03:53:08;100799.03;;;33.25;49.23
59409;BME280;45213;32.654;-115.458;2022-08-21T03:55:40;100815.53;;;33.32;49.63
59409;BME280;45213;32.654;-115.458;2022-08-21T03:58:10;100810.38;;;33.29;49.50
59409;BME280;45213;32.654;-115.458;2022-08-21T04:00:37;100820.34;;;33.28;50.16
59409;BME280;45213;32.654;-115.458;2022-08-21T04:03:04;100824.16;;;33.26;49.69
59409;BME280;45213;32.654;-115.458;2022-08-21T04:05:33;100814.03;;;33.18;50.50
59409;BME280;45213;32.654;-115.458;2022-08-21T04:08:04;100818.44;;;33.19;49.98
59409;BME280;45213;32.654;-115.458;2022-08-21T04:10:33;100829.50;;;33.16;50.08
59409;BME280;45213;32.654;-115.458;2022-08-21T04:13:01;100830.75;;;33.12;49.88
59409;BME280;45213;32.654;-115.458;2022-08-21T04:15:29;100820.81;;;33.13;49.71
59409;BME280;45213;32.654;-115.458;2022-08-21T04:17:57;100820.91;;;33.11;49.27
59409;BME280;45213;32.654;-115.458;2022-08-21T04:20:25;100830.78;;;33.01;49.71
59409;BME280;45213;32.654;-115.458;2022-08-21T04:22:53;100836.28;;;32.99;49.90
59409;BME280;45213;32.654;-115.458;2022-08-21T04:25:23;100825.03;;;32.94;50.04
59409;BME280;45213;32.654;-115.458;2022-08-21T04:27:51;100842.69;;;32.98;50.81
59409;BME280;45213;32.654;-115.458;2022-08-21T04:30:19;100851.00;;;32.95;51.02
59409;BME280;45213;32.654;-115.458;2022-08-21T04:32:50;100851.66;;;32.87;51.61
59409;BME280;45213;32.654;-115.458;2022-08-21T04:35:21;100836.88;;;32.82;51.92
59409;BME280;45213;32.654;-115.458;2022-08-21T04:37:50;100848.06;;;32.77;52.67
59409;BME280;45213;32.654;-115.458;2022-08-21T04:40:18;100843.25;;;32.81;52.76
59409;BME280;45213;32.654;-115.458;2022-08-21T04:42:48;100846.81;;;32.70;53.42
59409;BME280;45213;32.654;-115.458;2022-08-21T04:45:24;100856.03;;;32.67;54.00
59409;BME280;45213;32.654;-115.458;2022-08-21T04:47:56;100858.53;;;32.59;54.77
59409;BME280;45213;32.654;-115.458;2022-08-21T04:50:30;100856.06;;;32.56;54.83
59409;BME280;45213;32.654;-115.458;2022-08-21T04:53:11;100857.78;;;32.46;55.82
59409;BME280;45213;32.654;-115.458;2022-08-21T04:55:42;100856.31;;;32.42;56.38
59409;BME280;45213;32.654;-115.458;2022-08-21T04:58:12;100871.66;;;32.41;56.57
59409;BME280;45213;32.654;-115.458;2022-08-21T05:00:43;100872.75;;;32.39;56.50
59409;BME280;45213;32.654;-115.458;2022-08-21T05:03:11;100867.38;;;32.28;57.49
59409;BME280;45213;32.654;-115.458;2022-08-21T05:05:39;100877.16;;;32.29;57.27
59409;BME280;45213;32.654;-115.458;2022-08-21T05:08:07;100858.09;;;32.20;57.93
59409;BME280;45213;32.654;-115.458;2022-08-21T05:10:38;100873.34;;;32.31;57.84
59409;BME280;45213;32.654;-115.458;2022-08-21T05:13:06;100875.31;;;32.29;58.31
59409;BME280;45213;32.654;-115.458;2022-08-21T05:15:36;100872.88;;;32.26;58.07
59409;BME280;45213;32.654;-115.458;2022-08-21T05:18:06;100872.78;;;32.16;57.88
59409;BME280;45213;32.654;-115.458;2022-08-21T05:20:34;100878.16;;;32.16;58.16
59409;BME280;45213;32.654;-115.458;2022-08-21T05:23:01;100874.75;;;32.14;58.27
59409;BME280;45213;32.654;-115.458;2022-08-21T05:25:28;100859.81;;;31.99;58.46
59409;BME280;45213;32.654;-115.458;2022-08-21T05:27:55;100879.50;;;32.11;58.65
59409;BME280;45213;32.654;-115.458;2022-08-21T05:30:22;100880.50;;;32.10;58.33
59409;BME280;45213;32.654;-115.458;2022-08-21T05:32:49;100876.97;;;32.09;58.53
59409;BME280;45213;32.654;-115.458;2022-08-21T05:35:22;100883.78;;;32.02;58.50
59409;BME280;45213;32.654;-115.458;2022-08-21T05:37:49;100885.03;;;31.98;58.85
59409;BME280;45213;32.654;-115.458;2022-08-21T05:40:16;100879.66;;;31.98;58.57
59409;BME280;45213;32.654;-115.458;2022-08-21T05:42:44;100882.53;;;31.95;58.73
59409;BME280;45213;32.654;-115.458;2022-08-21T05:45:14;100878.63;;;31.88;58.95
59409;BME280;45213;32.654;-115.458;2022-08-21T05:47:41;100884.84;;;31.88;59.11
59409;BME280;45213;32.654;-115.458;2022-08-21T05:50:08;100902.13;;;31.86;58.99
59409;BME280;45213;32.654;-115.458;2022-08-21T05:52:35;100891.81;;;31.79;59.48
59409;BME280;45213;32.654;-115.458;2022-08-21T05:55:02;100887.91;;;31.83;59.60
59409;BME280;45213;32.654;-115.458;2022-08-21T05:57:29;100889.28;;;31.78;59.45
59409;BME280;45213;32.654;-115.458;2022-08-21T05:59:56;100900.88;;;31.78;59.37
59409;BME280;45213;32.654;-115.458;2022-08-21T06:02:25;100896.59;;;31.76;59.48
59409;BME280;45213;32.654;-115.458;2022-08-21T06:04:52;100902.34;;;31.71;59.87
59409;BME280;45213;32.654;-115.458;2022-08-21T06:07:19;100905.91;;;31.72;60.37
59409;BME280;45213;32.654;-115.458;2022-08-21T06:09:45;100906.75;;;31.72;60.17
59409;BME280;45213;32.654;-115.458;2022-08-21T06:12:12;100906.50;;;31.64;60.56
59409;BME280;45213;32.654;-115.458;2022-08-21T06:14:42;100903.78;;;31.53;61.02
59409;BME280;45213;32.654;-115.458;2022-08-21T06:17:13;100914.59;;;31.64;60.90
59409;BME280;45213;32.654;-115.458;2022-08-21T06:19:41;100918.22;;;31.63;61.76
59409;BME280;45213;32.654;-115.458;2022-08-21T06:22:08;100917.00;;;31.56;62.54
59409;BME280;45213;32.654;-115.458;2022-08-21T06:24:35;100933.16;;;31.56;63.02
59409;BME280;45213;32.654;-115.458;2022-08-21T06:27:08;100922.84;;;31.50;63.46
59409;BME280;45213;32.654;-115.458;2022-08-21T06:29:35;100913.69;;;31.41;63.65
59409;BME280;45213;32.654;-115.458;2022-08-21T06:32:02;100938.50;;;31.45;63.91
59409;BME280;45213;32.654;-115.458;2022-08-21T06:34:29;100924.22;;;31.31;64.69
59409;BME280;45213;32.654;-115.458;2022-08-21T06:36:56;100932.44;;;31.30;64.62
59409;BME280;45213;32.654;-115.458;2022-08-21T06:39:23;100939.75;;;31.28;64.66
59409;BME280;45213;32.654;-115.458;2022-08-21T06:41:50;100935.63;;;31.35;64.78
59409;BME280;45213;32.654;-115.458;2022-08-21T06:44:17;100937.44;;;31.23;65.40
59409;BME280;45213;32.654;-115.458;2022-08-21T06:46:44;100932.03;;;31.23;65.54
59409;BME280;45213;32.654;-115.458;2022-08-21T06:49:14;100919.09;;;31.28;65.24
59409;BME280;45213;32.654;-115.458;2022-08-21T06:51:41;100924.94;;;31.22;65.97
59409;BME280;45213;32.654;-115.458;2022-08-21T06:54:08;100932.25;;;31.20;65.93
59409;BME280;45213;32.654;-115.458;2022-08-21T06:56:34;100940.47;;;31.18;66.01
59409;BME280;45213;32.654;-115.458;2022-08-21T06:59:05;100943.16;;;31.18;66.00
59409;BME280;45213;32.654;-115.458;2022-08-21T07:01:32;100948.34;;;31.09;66.58
59409;BME280;45213;32.654;-115.458;2022-08-21T07:04:02;100945.44;;;31.12;66.57
59409;BME280;45213;32.654;-115.458;2022-08-21T07:06:28;100944.56;;;31.11;66.80
59409;BME280;45213;32.654;-115.458;2022-08-21T07:08:55;100950.19;;;31.08;67.16
59409;BME280;45213;32.654;-115.458;2022-08-21T07:11:23;100956.41;;;31.09;67.19
59409;BME280;45213;32.654;-115.458;2022-08-21T07:13:51;100956.41;;;31.09;67.26
59409;BME280;45213;32.654;-115.458;2022-08-21T07:16:20;100960.31;;;31.05;67.57
59409;BME280;45213;32.654;-115.458;2022-08-21T07:18:48;100953.91;;;30.94;68.22
59409;BME280;45213;32.654;-115.458;2022-08-21T07:21:15;100972.22;;;30.89;68.56
59409;BME280;45213;32.654;-115.458;2022-08-21T07:23:48;100968.09;;;30.84;68.76
59409;BME280;45213;32.654;-115.458;2022-08-21T07:26:18;100959.72;;;30.88;68.91
59409;BME280;45213;32.654;-115.458;2022-08-21T07:28:49;100970.47;;;30.88;68.95
59409;BME280;45213;32.654;-115.458;2022-08-21T07:31:19;100977.69;;;30.88;68.94
59409;BME280;45213;32.654;-115.458;2022-08-21T07:33:47;100980.38;;;30.88;69.27
59409;BME280;45213;32.654;-115.458;2022-08-21T07:36:14;100981.66;;;30.82;69.11
59409;BME280;45213;32.654;-115.458;2022-08-21T07:38:41;100978.44;;;30.77;69.62
59409;BME280;45213;32.654;-115.458;2022-08-21T07:41:21;100981.66;;;30.82;69.30
59409;BME280;45213;32.654;-115.458;2022-08-21T07:43:48;100987.91;;;30.83;69.44
59409;BME280;45213;32.654;-115.458;2022-08-21T07:46:15;100989.44;;;30.74;69.77
59409;BME280;45213;32.654;-115.458;2022-08-21T07:48:42;100984.81;;;30.76;69.69
59409;BME280;45213;32.654;-115.458;2022-08-21T07:51:12;100982.56;;;30.70;69.92
59409;BME280;45213;32.654;-115.458;2022-08-21T07:53:39;100967.53;;;30.54;70.37
59409;BME280;45213;32.654;-115.458;2022-08-21T07:56:08;100988.38;;;30.64;70.38
59409;BME280;45213;32.654;-115.458;2022-08-21T07:58:36;100991.78;;;30.66;70.78
59409;BME280;45213;32.654;-115.458;2022-08-21T08:01:06;100988.38;;;30.64;70.49
59409;BME280;45213;32.654;-115.458;2022-08-21T08:03:33;100990.53;;;30.58;70.75
59409;BME280;45213;32.654;-115.458;2022-08-21T08:06:00;100997.09;;;30.54;71.14
59409;BME280;45213;32.654;-115.458;2022-08-21T08:08:27;100992.78;;;30.52;71.34
59409;BME280;45213;32.654;-115.458;2022-08-21T08:10:56;100992.69;;;30.53;71.44
59409;BME280;45213;32.654;-115.458;2022-08-21T08:13:25;100993.78;;;30.51;71.80
59409;BME280;45213;32.654;-115.458;2022-08-21T08:15:52;101002.16;;;30.46;72.15
59409;BME280;45213;32.654;-115.458;2022-08-21T08:18:18;101006.03;;;30.42;72.46
59409;BME280;45213;32.654;-115.458;2022-08-21T08:20:45;100992.09;;;30.37;72.77
59409;BME280;45213;32.654;-115.458;2022-08-21T08:23:13;100997.97;;;30.42;72.60
59409;BME280;45213;32.654;-115.458;2022-08-21T08:25:41;100994.22;;;30.45;72.79
59409;BME280;45213;32.654;-115.458;2022-08-21T08:28:08;101002.59;;;30.40;72.89
59409;BME280;45213;32.654;-115.458;2022-08-21T08:30:35;101002.59;;;30.40;72.58
59409;BME280;45213;32.654;-115.458;2022-08-21T08:33:02;100995.09;;;30.32;72.64
59409;BME280;45213;32.654;-115.458;2022-08-21T08:35:28;100989.47;;;30.23;72.94
59409;BME280;45213;32.654;-115.458;2022-08-21T08:37:55;100997.97;;;30.16;73.25
59409;BME280;45213;32.654;-115.458;2022-08-21T08:42:55;101027.44;;;30.31;72.93
59409;BME280;45213;32.654;-115.458;2022-08-21T08:45:22;101024.09;;;30.27;73.02
59409;BME280;45213;32.654;-115.458;2022-08-21T08:48:03;101013.16;;;30.30;73.16
59409;BME280;45213;32.654;-115.458;2022-08-21T08:50:44;101018.19;;;30.35;73.01
59409;BME280;45213;32.654;-115.458;2022-08-21T08:53:17;101018.81;;;30.26;73.20
59409;BME280;45213;32.654;-115.458;2022-08-21T08:55:48;101011.06;;;30.21;73.59
59409;BME280;45213;32.654;-115.458;2022-08-21T08:58:24;101013.84;;;30.19;73.72
59409;BME280;45213;32.654;-115.458;2022-08-21T09:00:53;101011.25;;;30.18;73.94
59409;BME280;45213;32.654;-115.458;2022-08-21T09:03:22;101017.63;;;30.17;74.00
59409;BME280;45213;32.654;-115.458;2022-08-21T09:06:00;101027.94;;;30.23;73.83
59409;BME280;45213;32.654;-115.458;2022-08-21T09:14:34;101029.00;;;30.08;74.90
59409;BME280;45213;32.654;-115.458;2022-08-21T09:20:08;101024.72;;;30.05;75.08
59409;BME280;45213;32.654;-115.458;2022-08-21T09:25:26;101044.44;;;30.04;75.48
59409;BME280;45213;32.654;-115.458;2022-08-21T09:27:54;101028.88;;;29.96;75.64
59409;BME280;45213;32.654;-115.458;2022-08-21T09:30:29;101031.47;;;29.98;75.28
59409;BME280;45213;32.654;-115.458;2022-08-21T09:32:56;101037.59;;;30.00;75.27
59409;BME280;45213;32.654;-115.458;2022-08-21T09:35:24;101032.00;;;30.03;75.48
59409;BME280;45213;32.654;-115.458;2022-08-21T09:40:45;101033.41;;;29.96;75.63
59409;BME280;45213;32.654;-115.458;2022-08-21T09:45:41;101030.72;;;29.96;75.62
59409;BME280;45213;32.654;-115.458;2022-08-21T09:48:11;101028.03;;;29.96;75.08
59409;BME280;45213;32.654;-115.458;2022-08-21T09:50:39;101039.31;;;30.01;74.88
59409;BME280;45213;32.654;-115.458;2022-08-21T09:53:15;101032.22;;;30.00;74.69
59409;BME280;45213;32.654;-115.458;2022-08-21T09:56:05;101026.19;;;29.96;74.74
59409;BME280;45213;32.654;-115.458;2022-08-21T09:59:00;101024.59;;;29.94;74.90
59409;BME280;45213;32.654;-115.458;2022-08-21T10:01:27;101020.16;;;29.93;74.58
59409;BME280;45213;32.654;-115.458;2022-08-21T10:04:10;101015.25;;;29.87;74.84
59409;BME280;45213;32.654;-115.458;2022-08-21T10:06:38;101032.84;;;29.91;74.73
59409;BME280;45213;32.654;-115.458;2022-08-21T10:09:13;101017.34;;;29.82;74.74
59409;BME280;45213;32.654;-115.458;2022-08-21T10:11:53;101037.66;;;29.86;74.89
59409;BME280;45213;32.654;-115.458;2022-08-21T10:20:06;101038.66;;;29.85;74.73
59409;BME280;45213;32.654;-115.458;2022-08-21T10:25:31;101042.28;;;29.84;74.49
59409;BME280;45213;32.654;-115.458;2022-08-21T10:28:51;101018.75;;;29.74;74.54
59409;BME280;45213;32.654;-115.458;2022-08-21T10:31:20;101035.41;;;29.80;74.58
59409;BME280;45213;32.654;-115.458;2022-08-21T10:36:52;101038.09;;;29.80;74.40
59409;BME280;45213;32.654;-115.458;2022-08-21T10:39:31;101046.16;;;29.80;74.15
59409;BME280;45213;32.654;-115.458;2022-08-21T10:42:21;101044.19;;;29.82;73.91
59409;BME280;45213;32.654;-115.458;2022-08-21T10:45:07;101046.16;;;29.80;73.76
59409;BME280;45213;32.654;-115.458;2022-08-21T10:47:48;101058.06;;;29.75;73.92
59409;BME280;45213;32.654;-115.458;2022-08-21T10:50:37;101058.59;;;29.81;73.57
59409;BME280;45213;32.654;-115.458;2022-08-21T10:55:55;101050.75;;;29.77;73.58
59409;BME280;45213;32.654;-115.458;2022-08-21T10:58:38;101047.41;;;29.74;73.47
59409;BME280;45213;32.654;-115.458;2022-08-21T11:01:31;101055.16;;;29.79;73.24
59409;BME280;45213;32.654;-115.458;2022-08-21T11:04:53;101053.75;;;29.73;73.41
59409;BME280;45213;32.654;-115.458;2022-08-21T11:07:45;101045.72;;;29.73;73.34
59409;BME280;45213;32.654;-115.458;2022-08-21T11:10:37;101033.91;;;29.75;73.03
59409;BME280;45213;32.654;-115.458;2022-08-21T11:13:15;101038.38;;;29.75;72.90
59409;BME280;45213;32.654;-115.458;2022-08-21T11:18:34;101052.03;;;29.72;73.07
59409;BME280;45213;32.654;-115.458;2022-08-21T11:21:23;101059.66;;;29.78;72.66
59409;BME280;45213;32.654;-115.458;2022-08-21T11:27:04;101050.78;;;29.63;72.12
59409;BME280;45213;32.654;-115.458;2022-08-21T11:29:37;101059.00;;;29.74;72.03
59409;BME280;45213;32.654;-115.458;2022-08-21T11:32:31;101075.09;;;29.74;71.87
59409;BME280;45213;32.654;-115.458;2022-08-21T11:40:51;101085.06;;;29.72;71.76
59409;BME280;45213;32.654;-115.458;2022-08-21T11:54:55;101091.78;;;29.65;71.48
59409;BME280;45213;32.654;-115.458;2022-08-21T12:02:29;101119.56;;;29.79;70.71
59409;BME280;45213;32.654;-115.458;2022-08-21T12:05:04;101107.53;;;29.71;70.83
59409;BME280;45213;32.654;-115.458;2022-08-21T12:07:41;101116.88;;;29.79;71.10
59409;BME280;45213;32.654;-115.458;2022-08-21T12:10:12;101128.78;;;29.74;71.31
59409;BME280;45213;32.654;-115.458;2022-08-21T12:12:42;101126.59;;;29.67;71.71
59409;BME280;45213;32.654;-115.458;2022-08-21T12:20:40;101132.16;;;29.64;72.10
59409;BME280;45213;32.654;-115.458;2022-08-21T12:28:30;101151.22;;;29.59;72.81
59409;BME280;45213;32.654;-115.458;2022-08-21T12:30:57;101165.41;;;29.61;72.33
59409;BME280;45213;32.654;-115.458;2022-08-21T12:33:29;101160.03;;;29.61;72.88
59409;BME280;45213;32.654;-115.458;2022-08-21T12:36:19;101144.75;;;29.49;73.10
59409;BME280;45213;32.654;-115.458;2022-08-21T12:39:05;101176.13;;;29.61;73.21
59409;BME280;45213;32.654;-115.458;2022-08-21T12:41:58;101184.94;;;29.63;73.20
59409;BME280;45213;32.654;-115.458;2022-08-21T12:47:11;101195.69;;;29.63;73.40
59409;BME280;45213;32.654;-115.458;2022-08-21T12:50:00;101195.03;;;29.60;74.11
59409;BME280;45213;32.654;-115.458;2022-08-21T12:55:34;101228.88;;;29.48;75.81
59409;BME280;45213;32.654;-115.458;2022-08-21T12:58:01;101227.34;;;29.44;75.93
59409;BME280;45213;32.654;-115.458;2022-08-21T13:00:29;101226.88;;;29.37;76.67
59409;BME280;45213;32.654;-115.458;2022-08-21T13:02:56;101240.75;;;29.29;77.18
59409;BME280;45213;32.654;-115.458;2022-08-21T13:05:44;101234.47;;;29.16;78.35
59409;BME280;45213;32.654;-115.458;2022-08-21T13:08:12;101243.44;;;29.15;78.69
59409;BME280;45213;32.654;-115.458;2022-08-21T13:10:40;101235.59;;;29.12;78.98
59409;BME280;45213;32.654;-115.458;2022-08-21T13:13:12;101248.03;;;29.13;78.93
59409;BME280;45213;32.654;-115.458;2022-08-21T13:15:42;101251.69;;;29.12;79.08
59409;BME280;45213;32.654;-115.458;2022-08-21T13:18:21;101263.34;;;29.11;79.02
59409;BME280;45213;32.654;-115.458;2022-08-21T13:20:49;101263.47;;;29.09;79.21
59409;BME280;45213;32.654;-115.458;2022-08-21T13:23:27;101268.19;;;29.04;79.64
59409;BME280;45213;32.654;-115.458;2022-08-21T13:25:55;101275.75;;;28.98;79.94
59409;BME280;45213;32.654;-115.458;2022-08-21T13:28:31;101259.09;;;28.92;80.12
59409;BME280;45213;32.654;-115.458;2022-08-21T13:31:00;101263.88;;;29.02;80.18
59409;BME280;45213;32.654;-115.458;2022-08-21T13:33:30;101273.66;;;29.03;79.75
59409;BME280;45213;32.654;-115.458;2022-08-21T13:36:02;101284.47;;;29.01;79.91
59409;BME280;45213;32.654;-115.458;2022-08-21T13:38:33;101295.13;;;29.03;79.89
59409;BME280;45213;32.654;-115.458;2022-08-21T13:43:58;101290.88;;;28.99;79.69
59409;BME280;45213;32.654;-115.458;2022-08-21T13:46:36;101305.56;;;29.07;79.52
59409;BME280;45213;32.654;-115.458;2022-08-21T13:49:04;101320.25;;;29.16;79.35
59409;BME280;45213;32.654;-115.458;2022-08-21T13:51:32;101327.34;;;29.17;78.95
59409;BME280;45213;32.654;-115.458;2022-08-21T13:54:27;101326.66;;;29.13;79.37
59409;BME280;45213;32.654;-115.458;2022-08-21T13:56:56;101321.97;;;29.17;79.23
59409;BME280;45213;32.654;-115.458;2022-08-21T13:59:32;101335.06;;;29.07;79.48
59409;BME280;45213;32.654;-115.458;2022-08-21T14:04:36;101341.09;;;29.11;79.30
59409;BME280;45213;32.654;-115.458;2022-08-21T14:07:18;101352.06;;;29.22;78.28